sensor_id;sensor_type;location;lat;lon;timestamp;P1;durP1;ratioP1;P2;durP2;ratioP2
24867;SDS011;12941;48.698;9.310;2023-11-18T00:00:43;3;;;2.7;;
24867;SDS011;12941;48.698;9.310;2023-11-18T00:01:48;3.9;;;2.8;;
24867;SDS011;12941;48.698;9.310;2023-11-18T00:02:53;3.9;;;2.8;;
24867;SDS011;12941;48.698;9.310;2023-11-18T00:03:58;3.9;;;2.8;;
24867;SDS011;12941;48.698;9.310;2023-11-18T00:05:03;3.9;;;2.8;;
24867;SDS011;12941;48.698;9.310;2023-11-18T00:06:03;3.9;;;2.8;;
24867;SDS011;12941;48.698;9.310;2023-11-18T00:07:03;3.1;;;2.8;;
24867;SDS011;12941;48.698;9.310;2023-11-18T00:08:08;3.1;;;2.8;;
24867;SDS011;12941;48.698;9.310;2023-11-18T00:09:13;3.1;;;2.8;;
24867;SDS011;12941;48.698;9.310;2023-11-18T00:10:13;3.1;;;2.8;;
24867;SDS011;12941;48.698;9.310;2023-11-18T00:11:18;3.1;;;2.8;;
24867;SDS011;12941;48.698;9.310;2023-11-18T00:12:18;3.2;;;2.7;;
24867;SDS011;12941;48.698;9.310;2023-11-18T00:13:18;3.2;;;2.7;;
24867;SDS011;12941;48.698;9.310;2023-11-18T00:14:23;3.2;;;2.7;;
24867;SDS011;12941;48.698;9.310;2023-11-18T00:15:23;3.2;;;2.7;;
24867;SDS011;12941;48.698;9.310;2023-11-18T00:16:23;3.2;;;2.7;;
24867;SDS011;12941;48.698;9.310;2023-11-18T00:17:23;4.7;;;3.6;;
24867;SDS011;12941;48.698;9.310;2023-11-18T00:18:28;4.7;;;3.6;;
24867;SDS011;12941;48.698;9.310;2023-11-18T00:19:28;4.7;;;3.6;;
24867;SDS011;12941;48.698;9.310;2023-11-18T00:20:28;4.7;;;3.6;;
24867;SDS011;12941;48.698;9.310;2023-11-18T00:21:28;4.7;;;3.6;;
24867;SDS011;12941;48.698;9.310;2023-11-18T00:22:33;3.7;;;3.4;;
24867;SDS011;12941;48.698;9.310;2023-11-18T00:23:38;3.7;;;3.4;;
24867;SDS011;12941;48.698;9.310;2023-11-18T00:24:38;3.7;;;3.4;;
24867;SDS011;12941;48.698;9.310;2023-11-18T00:25:43;3.7;;;3.4;;
24867;SDS011;12941;48.698;9.310;2023-11-18T00:26:48;4.4;;;3.7;;
24867;SDS011;12941;48.698;9.310;2023-11-18T00:27:53;4.4;;;3.7;;
24867;SDS011;12941;48.698;9.310;2023-11-18T00:28:58;4.4;;;3.7;;
24867;SDS011;12941;48.698;9.310;2023-11-18T00:29:58;4.4;;;3.7;;
24867;SDS011;12941;48.698;9.310;2023-11-18T00:31:03;4.4;;;3.7;;
24867;SDS011;12941;48.698;9.310;2023-11-18T00:32:08;4.3;;;3.9;;
24867;SDS011;12941;48.698;9.310;2023-11-18T00:33:09;4.3;;;3.9;;
24867;SDS011;12941;48.698;9.310;2023-11-18T00:34:13;4.3;;;3.9;;
24867;SDS011;12941;48.698;9.310;2023-11-18T00:35:13;4.3;;;3.9;;
24867;SDS011;12941;48.698;9.310;2023-11-18T00:36:18;4.3;;;3.9;;
24867;SDS011;12941;48.698;9.310;2023-11-18T00:37:18;3.3;;;3;;
24867;SDS011;12941;48.698;9.310;2023-11-18T00:38:23;3.3;;;3;;
24867;SDS011;12941;48.698;9.310;2023-11-18T00:39:23;3.3;;;3;;
24867;SDS011;12941;48.698;9.310;2023-11-18T00:40:23;3.3;;;3;;
24867;SDS011;12941;48.698;9.310;2023-11-18T00:41:23;3.3;;;3;;
24867;SDS011;12941;48.698;9.310;2023-11-18T00:42:28;3.5;;;3.2;;
24867;SDS011;12941;48.698;9.310;2023-11-18T00:43:28;3.5;;;3.2;;
24867;SDS011;12941;48.698;9.310;2023-11-18T00:44:33;3.5;;;3.2;;
24867;SDS011;12941;48.698;9.310;2023-11-18T00:45:38;3.5;;;3.2;;
24867;SDS011;12941;48.698;9.310;2023-11-18T00:46:38;3.2;;;2.4;;
24867;SDS011;12941;48.698;9.310;2023-11-18T00:47:43;3.2;;;2.4;;
24867;SDS011;12941;48.698;9.310;2023-11-18T00:48:43;3.2;;;2.4;;
24867;SDS011;12941;48.698;9.310;2023-11-18T00:49:48;3.2;;;2.4;;
24867;SDS011;12941;48.698;9.310;2023-11-18T00:50:48;3.2;;;2.4;;
24867;SDS011;12941;48.698;9.310;2023-11-18T00:51:53;3;;;2.4;;
24867;SDS011;12941;48.698;9.310;2023-11-18T00:52:34;3;;;2.4;;
24867;SDS011;12941;48.698;9.310;2023-11-18T00:53:34;3;;;2.4;;
24867;SDS011;12941;48.698;9.310;2023-11-18T00:54:39;3;;;2.4;;
24867;SDS011;12941;48.698;9.310;2023-11-18T00:55:39;3;;;2.4;;
24867;SDS011;12941;48.698;9.310;2023-11-18T00:56:44;3;;;2.6;;
24867;SDS011;12941;48.698;9.310;2023-11-18T00:57:44;3;;;2.6;;
24867;SDS011;12941;48.698;9.310;2023-11-18T00:58:44;3;;;2.6;;
24867;SDS011;12941;48.698;9.310;2023-11-18T00:59:49;3;;;2.6;;
24867;SDS011;12941;48.698;9.310;2023-11-18T01:00:54;3;;;2.6;;
24867;SDS011;12941;48.698;9.310;2023-11-18T01:01:59;3.1;;;2.5;;
24867;SDS011;12941;48.698;9.310;2023-11-18T01:02:59;3.1;;;2.5;;
24867;SDS011;12941;48.698;9.310;2023-11-18T01:04:04;3.1;;;2.5;;
24867;SDS011;12941;48.698;9.310;2023-11-18T01:05:04;3.1;;;2.5;;
24867;SDS011;12941;48.698;9.310;2023-11-18T01:06:09;3.1;;;2.5;;
24867;SDS011;12941;48.698;9.310;2023-11-18T01:07:09;3.2;;;2.5;;
24867;SDS011;12941;48.698;9.310;2023-11-18T01:08:09;3.2;;;2.5;;
24867;SDS011;12941;48.698;9.310;2023-11-18T01:09:09;3.2;;;2.5;;
24867;SDS011;12941;48.698;9.310;2023-11-18T01:10:09;3.2;;;2.5;;
24867;SDS011;12941;48.698;9.310;2023-11-18T01:11:15;3.2;;;2.5;;
24867;SDS011;12941;48.698;9.310;2023-11-18T01:12:14;3.1;;;2.8;;
24867;SDS011;12941;48.698;9.310;2023-11-18T01:13:19;3.1;;;2.8;;
24867;SDS011;12941;48.698;9.310;2023-11-18T01:14:24;3.1;;;2.8;;
24867;SDS011;12941;48.698;9.310;2023-11-18T01:15:29;3.1;;;2.8;;
24867;SDS011;12941;48.698;9.310;2023-11-18T01:16:29;2.6;;;2.4;;
24867;SDS011;12941;48.698;9.310;2023-11-18T01:17:34;2.5;;;2.3;;
24867;SDS011;12941;48.698;9.310;2023-11-18T01:18:34;2.5;;;2.3;;
24867;SDS011;12941;48.698;9.310;2023-11-18T01:19:34;2.5;;;2.3;;
24867;SDS011;12941;48.698;9.310;2023-11-18T01:20:39;2.5;;;2.3;;
24867;SDS011;12941;48.698;9.310;2023-11-18T01:21:44;3.1;;;2.3;;
24867;SDS011;12941;48.698;9.310;2023-11-18T01:22:50;3.1;;;2.3;;
24867;SDS011;12941;48.698;9.310;2023-11-18T01:23:54;3.1;;;2.3;;
24867;SDS011;12941;48.698;9.310;2023-11-18T01:24:54;3.1;;;2.3;;
24867;SDS011;12941;48.698;9.310;2023-11-18T01:25:54;3.1;;;2.3;;
24867;SDS011;12941;48.698;9.310;2023-11-18T01:26:59;2.6;;;2.4;;
24867;SDS011;12941;48.698;9.310;2023-11-18T01:27:59;2.6;;;2.4;;
24867;SDS011;12941;48.698;9.310;2023-11-18T01:28:59;2.6;;;2.4;;
24867;SDS011;12941;48.698;9.310;2023-11-18T01:30:05;2.6;;;2.4;;
24867;SDS011;12941;48.698;9.310;2023-11-18T01:31:04;2.6;;;2.4;;
24867;SDS011;12941;48.698;9.310;2023-11-18T01:32:09;2.7;;;2.5;;
24867;SDS011;12941;48.698;9.310;2023-11-18T01:33:09;2.7;;;2.5;;
24867;SDS011;12941;48.698;9.310;2023-11-18T01:34:09;2.7;;;2.5;;
24867;SDS011;12941;48.698;9.310;2023-11-18T01:35:15;2.7;;;2.5;;
24867;SDS011;12941;48.698;9.310;2023-11-18T01:36:20;2.7;;;2.5;;
24867;SDS011;12941;48.698;9.310;2023-11-18T01:37:24;3.6;;;2.6;;
24867;SDS011;12941;48.698;9.310;2023-11-18T01:38:24;3.6;;;2.6;;
24867;SDS011;12941;48.698;9.310;2023-11-18T01:39:29;3.6;;;2.6;;
24867;SDS011;12941;48.698;9.310;2023-11-18T01:40:30;3.6;;;2.6;;
24867;SDS011;12941;48.698;9.310;2023-11-18T01:41:35;3.1;;;2.3;;
24867;SDS011;12941;48.698;9.310;2023-11-18T01:42:41;3.1;;;2.3;;
24867;SDS011;12941;48.698;9.310;2023-11-18T01:43:45;3.1;;;2.3;;
24867;SDS011;12941;48.698;9.310;2023-11-18T01:44:44;3.1;;;2.3;;
24867;SDS011;12941;48.698;9.310;2023-11-18T01:45:48;3.1;;;2.3;;
24867;SDS011;12941;48.698;9.310;2023-11-18T01:46:48;4;;;2.7;;
24867;SDS011;12941;48.698;9.310;2023-11-18T01:47:48;4;;;2.7;;
24867;SDS011;12941;48.698;9.310;2023-11-18T01:48:53;4;;;2.7;;
24867;SDS011;12941;48.698;9.310;2023-11-18T01:49:53;4;;;2.7;;
24867;SDS011;12941;48.698;9.310;2023-11-18T01:50:59;4;;;2.7;;
24867;SDS011;12941;48.698;9.310;2023-11-18T01:51:58;2.6;;;2.4;;
24867;SDS011;12941;48.698;9.310;2023-11-18T01:52:58;2.6;;;2.4;;
24867;SDS011;12941;48.698;9.310;2023-11-18T01:53:59;2.6;;;2.4;;
24867;SDS011;12941;48.698;9.310;2023-11-18T01:55:03;2.6;;;2.4;;
24867;SDS011;12941;48.698;9.310;2023-11-18T01:56:03;2.6;;;2.4;;
24867;SDS011;12941;48.698;9.310;2023-11-18T01:57:08;3.3;;;2.7;;
24867;SDS011;12941;48.698;9.310;2023-11-18T01:58:08;3.3;;;2.7;;
24867;SDS011;12941;48.698;9.310;2023-11-18T01:59:13;3.3;;;2.7;;
24867;SDS011;12941;48.698;9.310;2023-11-18T02:00:13;3.3;;;2.7;;
24867;SDS011;12941;48.698;9.310;2023-11-18T02:01:13;3.3;;;2.7;;
24867;SDS011;12941;48.698;9.310;2023-11-18T02:02:14;2.7;;;2.4;;
24867;SDS011;12941;48.698;9.310;2023-11-18T02:03:19;2.7;;;2.4;;
24867;SDS011;12941;48.698;9.310;2023-11-18T02:04:24;2.7;;;2.4;;
24867;SDS011;12941;48.698;9.310;2023-11-18T02:05:24;2.7;;;2.4;;
24867;SDS011;12941;48.698;9.310;2023-11-18T02:06:29;2.6;;;2.4;;
24867;SDS011;12941;48.698;9.310;2023-11-18T02:07:34;2.5;;;2.3;;
24867;SDS011;12941;48.698;9.310;2023-11-18T02:08:39;2.5;;;2.3;;
24867;SDS011;12941;48.698;9.310;2023-11-18T02:09:44;2.5;;;2.3;;
24867;SDS011;12941;48.698;9.310;2023-11-18T02:10:49;2.5;;;2.3;;
24867;SDS011;12941;48.698;9.310;2023-11-18T02:11:53;2.6;;;2.4;;
24867;SDS011;12941;48.698;9.310;2023-11-18T02:12:50;2.6;;;2.4;;
24867;SDS011;12941;48.698;9.310;2023-11-18T02:13:54;2.6;;;2.4;;
24867;SDS011;12941;48.698;9.310;2023-11-18T02:14:59;2.6;;;2.4;;
24867;SDS011;12941;48.698;9.310;2023-11-18T02:15:59;2.6;;;2.4;;
24867;SDS011;12941;48.698;9.310;2023-11-18T02:17:04;2;;;1.8;;
24867;SDS011;12941;48.698;9.310;2023-11-18T02:18:09;2;;;1.8;;
24867;SDS011;12941;48.698;9.310;2023-11-18T02:19:09;2;;;1.8;;
24867;SDS011;12941;48.698;9.310;2023-11-18T02:20:14;2;;;1.8;;
24867;SDS011;12941;48.698;9.310;2023-11-18T02:21:14;2;;;1.8;;
24867;SDS011;12941;48.698;9.310;2023-11-18T02:22:19;3.4;;;2.2;;
24867;SDS011;12941;48.698;9.310;2023-11-18T02:23:19;3.4;;;2.2;;
24867;SDS011;12941;48.698;9.310;2023-11-18T02:24:24;3.4;;;2.2;;
24867;SDS011;12941;48.698;9.310;2023-11-18T02:25:29;3.4;;;2.2;;
24867;SDS011;12941;48.698;9.310;2023-11-18T02:26:29;3.8;;;2.7;;
24867;SDS011;12941;48.698;9.310;2023-11-18T02:27:29;3.6;;;2.7;;
24867;SDS011;12941;48.698;9.310;2023-11-18T02:28:34;3.6;;;2.7;;
24867;SDS011;12941;48.698;9.310;2023-11-18T02:29:34;3.6;;;2.7;;
24867;SDS011;12941;48.698;9.310;2023-11-18T02:30:34;3.6;;;2.7;;
24867;SDS011;12941;48.698;9.310;2023-11-18T02:31:34;2.4;;;2.2;;
24867;SDS011;12941;48.698;9.310;2023-11-18T02:32:39;2.4;;;2.2;;
24867;SDS011;12941;48.698;9.310;2023-11-18T02:33:40;2.4;;;2.2;;
24867;SDS011;12941;48.698;9.310;2023-11-18T02:34:40;2.4;;;2.2;;
24867;SDS011;12941;48.698;9.310;2023-11-18T02:35:40;2.4;;;2.2;;
24867;SDS011;12941;48.698;9.310;2023-11-18T02:36:44;2.4;;;2.2;;
24867;SDS011;12941;48.698;9.310;2023-11-18T02:37:49;2.4;;;2.2;;
24867;SDS011;12941;48.698;9.310;2023-11-18T02:38:49;2.4;;;2.2;;
24867;SDS011;12941;48.698;9.310;2023-11-18T02:39:50;2.4;;;2.2;;
24867;SDS011;12941;48.698;9.310;2023-11-18T02:40:54;2.4;;;2.2;;
24867;SDS011;12941;48.698;9.310;2023-11-18T02:41:54;2.4;;;2.2;;
24867;SDS011;12941;48.698;9.310;2023-11-18T02:42:59;2.4;;;2.2;;
24867;SDS011;12941;48.698;9.310;2023-11-18T02:43:59;2.4;;;2.2;;
24867;SDS011;12941;48.698;9.310;2023-11-18T02:45:08;2.4;;;2.2;;
24867;SDS011;12941;48.698;9.310;2023-11-18T02:46:09;2.4;;;2.2;;
24867;SDS011;12941;48.698;9.310;2023-11-18T02:47:14;2.3;;;2.1;;
24867;SDS011;12941;48.698;9.310;2023-11-18T02:48:19;2.3;;;2.1;;
24867;SDS011;12941;48.698;9.310;2023-11-18T02:49:19;2.3;;;2.1;;
24867;SDS011;12941;48.698;9.310;2023-11-18T02:50:19;2.3;;;2.1;;
24867;SDS011;12941;48.698;9.310;2023-11-18T02:51:19;2.3;;;2.1;;
24867;SDS011;12941;48.698;9.310;2023-11-18T02:52:19;2.3;;;2.1;;
24867;SDS011;12941;48.698;9.310;2023-11-18T02:53:19;2.3;;;2.1;;
24867;SDS011;12941;48.698;9.310;2023-11-18T02:54:24;2.3;;;2.1;;
24867;SDS011;12941;48.698;9.310;2023-11-18T02:55:29;2.3;;;2.1;;
24867;SDS011;12941;48.698;9.310;2023-11-18T02:56:33;2.5;;;2.3;;
24867;SDS011;12941;48.698;9.310;2023-11-18T02:57:34;2.5;;;2.3;;
24867;SDS011;12941;48.698;9.310;2023-11-18T02:58:39;2.5;;;2.3;;
24867;SDS011;12941;48.698;9.310;2023-11-18T02:59:44;2.5;;;2.3;;
24867;SDS011;12941;48.698;9.310;2023-11-18T03:00:49;2.5;;;2.3;;
24867;SDS011;12941;48.698;9.310;2023-11-18T03:01:54;2.7;;;2.2;;
24867;SDS011;12941;48.698;9.310;2023-11-18T03:02:59;2.7;;;2.2;;
24867;SDS011;12941;48.698;9.310;2023-11-18T03:03:59;2.7;;;2.2;;
24867;SDS011;12941;48.698;9.310;2023-11-18T03:05:05;2.7;;;2.2;;
24867;SDS011;12941;48.698;9.310;2023-11-18T03:06:04;2.7;;;2.2;;
24867;SDS011;12941;48.698;9.310;2023-11-18T03:07:09;4.2;;;2.6;;
24867;SDS011;12941;48.698;9.310;2023-11-18T03:08:09;4.2;;;2.6;;
24867;SDS011;12941;48.698;9.310;2023-11-18T03:09:09;4.2;;;2.6;;
24867;SDS011;12941;48.698;9.310;2023-11-18T03:10:09;4.2;;;2.6;;
24867;SDS011;12941;48.698;9.310;2023-11-18T03:11:14;4.2;;;2.6;;
24867;SDS011;12941;48.698;9.310;2023-11-18T03:12:14;2.8;;;2.6;;
24867;SDS011;12941;48.698;9.310;2023-11-18T03:13:19;2.8;;;2.6;;
24867;SDS011;12941;48.698;9.310;2023-11-18T03:14:19;2.8;;;2.6;;
24867;SDS011;12941;48.698;9.310;2023-11-18T03:15:24;2.8;;;2.6;;
24867;SDS011;12941;48.698;9.310;2023-11-18T03:16:24;2.8;;;2.6;;
24867;SDS011;12941;48.698;9.310;2023-11-18T03:17:29;3.1;;;2.8;;
24867;SDS011;12941;48.698;9.310;2023-11-18T03:18:34;3.1;;;2.8;;
24867;SDS011;12941;48.698;9.310;2023-11-18T03:19:34;3.1;;;2.8;;
24867;SDS011;12941;48.698;9.310;2023-11-18T03:20:34;3.1;;;2.8;;
24867;SDS011;12941;48.698;9.310;2023-11-18T03:21:39;3.9;;;3.5;;
24867;SDS011;12941;48.698;9.310;2023-11-18T03:22:44;3.9;;;3.5;;
24867;SDS011;12941;48.698;9.310;2023-11-18T03:23:44;3.9;;;3.5;;
24867;SDS011;12941;48.698;9.310;2023-11-18T03:24:44;3.9;;;3.5;;
24867;SDS011;12941;48.698;9.310;2023-11-18T03:25:44;3.9;;;3.5;;
24867;SDS011;12941;48.698;9.310;2023-11-18T03:26:44;4.3;;;3.2;;
24867;SDS011;12941;48.698;9.310;2023-11-18T03:27:49;4.3;;;3.2;;
24867;SDS011;12941;48.698;9.310;2023-11-18T03:28:54;4.3;;;3.2;;
24867;SDS011;12941;48.698;9.310;2023-11-18T03:29:59;4.3;;;3.2;;
24867;SDS011;12941;48.698;9.310;2023-11-18T03:31:04;4.3;;;3.2;;
24867;SDS011;12941;48.698;9.310;2023-11-18T03:32:04;3.6;;;2.9;;
24867;SDS011;12941;48.698;9.310;2023-11-18T03:33:04;3.6;;;2.9;;
24867;SDS011;12941;48.698;9.310;2023-11-18T03:34:04;3.6;;;2.9;;
24867;SDS011;12941;48.698;9.310;2023-11-18T03:35:05;3.6;;;2.9;;
24867;SDS011;12941;48.698;9.310;2023-11-18T03:36:09;3.6;;;2.9;;
24867;SDS011;12941;48.698;9.310;2023-11-18T03:37:09;3.5;;;3.1;;
24867;SDS011;12941;48.698;9.310;2023-11-18T03:38:09;3.5;;;3.1;;
24867;SDS011;12941;48.698;9.310;2023-11-18T03:39:14;3.5;;;3.1;;
24867;SDS011;12941;48.698;9.310;2023-11-18T03:40:14;3.5;;;3.1;;
24867;SDS011;12941;48.698;9.310;2023-11-18T03:41:19;3.5;;;3.1;;
24867;SDS011;12941;48.698;9.310;2023-11-18T03:42:24;4.1;;;2.9;;
24867;SDS011;12941;48.698;9.310;2023-11-18T03:43:29;4.1;;;2.9;;
24867;SDS011;12941;48.698;9.310;2023-11-18T03:44:29;4.1;;;2.9;;
24867;SDS011;12941;48.698;9.310;2023-11-18T03:45:34;4.1;;;2.9;;
24867;SDS011;12941;48.698;9.310;2023-11-18T03:46:39;2.6;;;2.4;;
24867;SDS011;12941;48.698;9.310;2023-11-18T03:47:44;2.6;;;2.4;;
24867;SDS011;12941;48.698;9.310;2023-11-18T03:48:49;2.6;;;2.4;;
24867;SDS011;12941;48.698;9.310;2023-11-18T03:49:54;2.6;;;2.4;;
24867;SDS011;12941;48.698;9.310;2023-11-18T03:50:54;2.6;;;2.4;;
24867;SDS011;12941;48.698;9.310;2023-11-18T03:51:59;2.7;;;2.5;;
24867;SDS011;12941;48.698;9.310;2023-11-18T03:53:04;2.7;;;2.5;;
24867;SDS011;12941;48.698;9.310;2023-11-18T03:54:10;2.7;;;2.5;;
24867;SDS011;12941;48.698;9.310;2023-11-18T03:55:14;2.7;;;2.5;;
24867;SDS011;12941;48.698;9.310;2023-11-18T03:56:16;2.7;;;2.5;;
24867;SDS011;12941;48.698;9.310;2023-11-18T03:57:19;3;;;2.7;;
24867;SDS011;12941;48.698;9.310;2023-11-18T03:58:19;3;;;2.7;;
24867;SDS011;12941;48.698;9.310;2023-11-18T03:59:24;3;;;2.7;;
24867;SDS011;12941;48.698;9.310;2023-11-18T04:00:24;3;;;2.7;;
24867;SDS011;12941;48.698;9.310;2023-11-18T04:01:29;6.2;;;2.8;;
24867;SDS011;12941;48.698;9.310;2023-11-18T04:02:30;6;;;2.8;;
24867;SDS011;12941;48.698;9.310;2023-11-18T04:03:35;6;;;2.8;;
24867;SDS011;12941;48.698;9.310;2023-11-18T04:04:39;6;;;2.8;;
24867;SDS011;12941;48.698;9.310;2023-11-18T04:05:45;6;;;2.8;;
24867;SDS011;12941;48.698;9.310;2023-11-18T04:06:49;3.5;;;3.2;;
24867;SDS011;12941;48.698;9.310;2023-11-18T04:07:49;3.5;;;3.2;;
24867;SDS011;12941;48.698;9.310;2023-11-18T04:08:50;3.5;;;3.2;;
24867;SDS011;12941;48.698;9.310;2023-11-18T04:09:55;3.5;;;3.2;;
24867;SDS011;12941;48.698;9.310;2023-11-18T04:11:00;3.5;;;3.2;;
24867;SDS011;12941;48.698;9.310;2023-11-18T04:12:05;2.9;;;2.6;;
24867;SDS011;12941;48.698;9.310;2023-11-18T04:13:08;2.9;;;2.6;;
24867;SDS011;12941;48.698;9.310;2023-11-18T04:14:10;2.9;;;2.6;;
24867;SDS011;12941;48.698;9.310;2023-11-18T04:15:15;2.9;;;2.6;;
24867;SDS011;12941;48.698;9.310;2023-11-18T04:16:15;2.9;;;2.6;;
24867;SDS011;12941;48.698;9.310;2023-11-18T04:17:15;3.1;;;2.2;;
24867;SDS011;12941;48.698;9.310;2023-11-18T04:18:19;3.1;;;2.2;;
24867;SDS011;12941;48.698;9.310;2023-11-18T04:19:19;3.1;;;2.2;;
24867;SDS011;12941;48.698;9.310;2023-11-18T04:20:20;3.1;;;2.2;;
24867;SDS011;12941;48.698;9.310;2023-11-18T04:21:25;3.1;;;2.2;;
24867;SDS011;12941;48.698;9.310;2023-11-18T04:22:25;2.4;;;2.2;;
24867;SDS011;12941;48.698;9.310;2023-11-18T04:23:29;2.4;;;2.2;;
24867;SDS011;12941;48.698;9.310;2023-11-18T04:24:30;2.4;;;2.2;;
24867;SDS011;12941;48.698;9.310;2023-11-18T04:25:35;2.4;;;2.2;;
24867;SDS011;12941;48.698;9.310;2023-11-18T04:26:35;2.6;;;2.4;;
24867;SDS011;12941;48.698;9.310;2023-11-18T04:27:40;2.6;;;2.4;;
24867;SDS011;12941;48.698;9.310;2023-11-18T04:28:40;2.6;;;2.4;;
24867;SDS011;12941;48.698;9.310;2023-11-18T04:29:45;2.6;;;2.4;;
24867;SDS011;12941;48.698;9.310;2023-11-18T04:30:45;2.6;;;2.4;;
24867;SDS011;12941;48.698;9.310;2023-11-18T04:31:45;2.5;;;2.3;;
24867;SDS011;12941;48.698;9.310;2023-11-18T04:32:49;2.5;;;2.3;;
24867;SDS011;12941;48.698;9.310;2023-11-18T04:33:50;2.5;;;2.3;;
24867;SDS011;12941;48.698;9.310;2023-11-18T04:34:55;2.5;;;2.3;;
24867;SDS011;12941;48.698;9.310;2023-11-18T04:36:00;2.5;;;2.3;;
24867;SDS011;12941;48.698;9.310;2023-11-18T04:37:00;2.2;;;2;;
24867;SDS011;12941;48.698;9.310;2023-11-18T04:38:05;2.2;;;2;;
24867;SDS011;12941;48.698;9.310;2023-11-18T04:39:05;2.2;;;2;;
24867;SDS011;12941;48.698;9.310;2023-11-18T04:40:10;2.2;;;2;;
24867;SDS011;12941;48.698;9.310;2023-11-18T04:41:10;2.2;;;2;;
24867;SDS011;12941;48.698;9.310;2023-11-18T04:42:15;2.7;;;2.1;;
24867;SDS011;12941;48.698;9.310;2023-11-18T04:43:15;2.7;;;2.1;;
24867;SDS011;12941;48.698;9.310;2023-11-18T04:44:20;2.7;;;2.1;;
24867;SDS011;12941;48.698;9.310;2023-11-18T04:45:25;2.7;;;2.1;;
24867;SDS011;12941;48.698;9.310;2023-11-18T04:46:30;2.2;;;2;;
24867;SDS011;12941;48.698;9.310;2023-11-18T04:47:35;2.2;;;2;;
24867;SDS011;12941;48.698;9.310;2023-11-18T04:48:35;2.2;;;2;;
24867;SDS011;12941;48.698;9.310;2023-11-18T04:49:40;2.2;;;2;;
24867;SDS011;12941;48.698;9.310;2023-11-18T04:50:45;2.2;;;2;;
24867;SDS011;12941;48.698;9.310;2023-11-18T04:51:45;2.8;;;2.1;;
24867;SDS011;12941;48.698;9.310;2023-11-18T04:52:50;2.8;;;2.1;;
24867;SDS011;12941;48.698;9.310;2023-11-18T04:53:55;2.8;;;2.1;;
24867;SDS011;12941;48.698;9.310;2023-11-18T04:54:55;2.8;;;2.1;;
24867;SDS011;12941;48.698;9.310;2023-11-18T04:56:00;2.8;;;2.1;;
24867;SDS011;12941;48.698;9.310;2023-11-18T04:57:00;2.1;;;1.9;;
24867;SDS011;12941;48.698;9.310;2023-11-18T04:58:05;2.1;;;1.9;;
24867;SDS011;12941;48.698;9.310;2023-11-18T04:59:05;2.1;;;1.9;;
24867;SDS011;12941;48.698;9.310;2023-11-18T05:00:10;2.1;;;1.9;;
24867;SDS011;12941;48.698;9.310;2023-11-18T05:01:15;2.1;;;1.9;;
24867;SDS011;12941;48.698;9.310;2023-11-18T05:02:15;2.5;;;2.3;;
24867;SDS011;12941;48.698;9.310;2023-11-18T05:03:15;2.5;;;2.3;;
24867;SDS011;12941;48.698;9.310;2023-11-18T05:04:15;2.5;;;2.3;;
24867;SDS011;12941;48.698;9.310;2023-11-18T05:05:15;2.5;;;2.3;;
24867;SDS011;12941;48.698;9.310;2023-11-18T05:06:20;2.5;;;2.3;;
24867;SDS011;12941;48.698;9.310;2023-11-18T05:07:20;2.5;;;2.2;;
24867;SDS011;12941;48.698;9.310;2023-11-18T05:08:25;2.5;;;2.2;;
24867;SDS011;12941;48.698;9.310;2023-11-18T05:09:25;2.5;;;2.2;;
24867;SDS011;12941;48.698;9.310;2023-11-18T05:10:25;2.5;;;2.2;;
24867;SDS011;12941;48.698;9.310;2023-11-18T05:11:30;3.9;;;2.5;;
24867;SDS011;12941;48.698;9.310;2023-11-18T05:12:35;4;;;2.5;;
24867;SDS011;12941;48.698;9.310;2023-11-18T05:13:40;4;;;2.5;;
24867;SDS011;12941;48.698;9.310;2023-11-18T05:14:40;4;;;2.5;;
24867;SDS011;12941;48.698;9.310;2023-11-18T05:15:45;4;;;2.5;;
24867;SDS011;12941;48.698;9.310;2023-11-18T05:16:50;2.8;;;2.5;;
24867;SDS011;12941;48.698;9.310;2023-11-18T05:17:55;2.8;;;2.5;;
24867;SDS011;12941;48.698;9.310;2023-11-18T05:18:55;2.8;;;2.5;;
24867;SDS011;12941;48.698;9.310;2023-11-18T05:20:00;2.8;;;2.5;;
24867;SDS011;12941;48.698;9.310;2023-11-18T05:21:05;2.8;;;2.5;;
24867;SDS011;12941;48.698;9.310;2023-11-18T05:22:10;2.7;;;2.5;;
24867;SDS011;12941;48.698;9.310;2023-11-18T05:23:15;2.7;;;2.5;;
24867;SDS011;12941;48.698;9.310;2023-11-18T05:24:20;2.7;;;2.5;;
24867;SDS011;12941;48.698;9.310;2023-11-18T05:25:25;2.7;;;2.5;;
24867;SDS011;12941;48.698;9.310;2023-11-18T05:26:25;2.7;;;2.5;;
24867;SDS011;12941;48.698;9.310;2023-11-18T05:27:30;2.6;;;2.4;;
24867;SDS011;12941;48.698;9.310;2023-11-18T05:28:35;2.6;;;2.4;;
24867;SDS011;12941;48.698;9.310;2023-11-18T05:29:35;2.6;;;2.4;;
24867;SDS011;12941;48.698;9.310;2023-11-18T05:30:41;2.6;;;2.4;;
24867;SDS011;12941;48.698;9.310;2023-11-18T05:31:40;2.9;;;2.7;;
24867;SDS011;12941;48.698;9.310;2023-11-18T05:32:45;2.9;;;2.7;;
24867;SDS011;12941;48.698;9.310;2023-11-18T05:33:45;2.9;;;2.7;;
24867;SDS011;12941;48.698;9.310;2023-11-18T05:34:50;2.9;;;2.7;;
24867;SDS011;12941;48.698;9.310;2023-11-18T05:35:50;2.9;;;2.7;;
24867;SDS011;12941;48.698;9.310;2023-11-18T05:36:55;2.8;;;2.5;;
24867;SDS011;12941;48.698;9.310;2023-11-18T05:37:55;2.8;;;2.5;;
24867;SDS011;12941;48.698;9.310;2023-11-18T05:38:55;2.8;;;2.5;;
24867;SDS011;12941;48.698;9.310;2023-11-18T05:40:00;2.8;;;2.5;;
24867;SDS011;12941;48.698;9.310;2023-11-18T05:41:00;2.8;;;2.5;;
24867;SDS011;12941;48.698;9.310;2023-11-18T05:42:00;2.9;;;2.6;;
24867;SDS011;12941;48.698;9.310;2023-11-18T05:43:05;2.9;;;2.6;;
24867;SDS011;12941;48.698;9.310;2023-11-18T05:44:05;2.9;;;2.6;;
24867;SDS011;12941;48.698;9.310;2023-11-18T05:45:05;2.9;;;2.6;;
24867;SDS011;12941;48.698;9.310;2023-11-18T05:46:10;2.9;;;2.6;;
24867;SDS011;12941;48.698;9.310;2023-11-18T05:47:15;2.9;;;2.7;;
24867;SDS011;12941;48.698;9.310;2023-11-18T05:48:15;2.9;;;2.7;;
24867;SDS011;12941;48.698;9.310;2023-11-18T05:49:15;2.9;;;2.7;;
24867;SDS011;12941;48.698;9.310;2023-11-18T05:50:15;2.9;;;2.7;;
24867;SDS011;12941;48.698;9.310;2023-11-18T05:51:20;2.9;;;2.7;;
24867;SDS011;12941;48.698;9.310;2023-11-18T05:52:25;3.8;;;2.8;;
24867;SDS011;12941;48.698;9.310;2023-11-18T05:53:30;3.8;;;2.8;;
24867;SDS011;12941;48.698;9.310;2023-11-18T05:54:30;3.8;;;2.8;;
24867;SDS011;12941;48.698;9.310;2023-11-18T05:55:35;3.8;;;2.8;;
24867;SDS011;12941;48.698;9.310;2023-11-18T05:56:40;3;;;2.5;;
24867;SDS011;12941;48.698;9.310;2023-11-18T05:57:40;3;;;2.5;;
24867;SDS011;12941;48.698;9.310;2023-11-18T05:58:40;3;;;2.5;;
24867;SDS011;12941;48.698;9.310;2023-11-18T05:59:45;3;;;2.5;;
24867;SDS011;12941;48.698;9.310;2023-11-18T06:00:46;3;;;2.5;;
24867;SDS011;12941;48.698;9.310;2023-11-18T06:01:50;3.6;;;2.3;;
24867;SDS011;12941;48.698;9.310;2023-11-18T06:02:55;3.6;;;2.3;;
24867;SDS011;12941;48.698;9.310;2023-11-18T06:04:00;3.6;;;2.3;;
24867;SDS011;12941;48.698;9.310;2023-11-18T06:05:00;3.6;;;2.3;;
24867;SDS011;12941;48.698;9.310;2023-11-18T06:06:00;3.6;;;2.3;;
24867;SDS011;12941;48.698;9.310;2023-11-18T06:07:00;2.4;;;2.2;;
24867;SDS011;12941;48.698;9.310;2023-11-18T06:08:00;2.4;;;2.2;;
24867;SDS011;12941;48.698;9.310;2023-11-18T06:09:05;2.4;;;2.2;;
24867;SDS011;12941;48.698;9.310;2023-11-18T06:10:10;2.4;;;2.2;;
24867;SDS011;12941;48.698;9.310;2023-11-18T06:11:15;2.4;;;2.2;;
24867;SDS011;12941;48.698;9.310;2023-11-18T06:12:15;3.5;;;3.2;;
24867;SDS011;12941;48.698;9.310;2023-11-18T06:13:20;3.5;;;3.2;;
24867;SDS011;12941;48.698;9.310;2023-11-18T06:14:25;3.5;;;3.2;;
24867;SDS011;12941;48.698;9.310;2023-11-18T06:15:25;3.5;;;3.2;;
24867;SDS011;12941;48.698;9.310;2023-11-18T06:16:30;6.7;;;5;;
24867;SDS011;12941;48.698;9.310;2023-11-18T06:17:35;6.5;;;5;;
24867;SDS011;12941;48.698;9.310;2023-11-18T06:18:35;6.5;;;5;;
24867;SDS011;12941;48.698;9.310;2023-11-18T06:19:35;6.5;;;5;;
24867;SDS011;12941;48.698;9.310;2023-11-18T06:20:40;6.5;;;5;;
24867;SDS011;12941;48.698;9.310;2023-11-18T06:21:40;5.5;;;4.6;;
24867;SDS011;12941;48.698;9.310;2023-11-18T06:22:45;5.5;;;4.6;;
24867;SDS011;12941;48.698;9.310;2023-11-18T06:23:46;5.5;;;4.6;;
24867;SDS011;12941;48.698;9.310;2023-11-18T06:24:50;5.5;;;4.6;;
24867;SDS011;12941;48.698;9.310;2023-11-18T06:25:50;5.5;;;4.6;;
24867;SDS011;12941;48.698;9.310;2023-11-18T06:26:55;10.9;;;5.8;;
24867;SDS011;12941;48.698;9.310;2023-11-18T06:28:00;10.9;;;5.8;;
24867;SDS011;12941;48.698;9.310;2023-11-18T06:29:05;10.9;;;5.8;;
24867;SDS011;12941;48.698;9.310;2023-11-18T06:30:11;10.9;;;5.8;;
24867;SDS011;12941;48.698;9.310;2023-11-18T06:31:15;10.9;;;5.8;;